Time;durP1;ratioP1;P1;durP2;ratioP2;P2;SDS_P1;SDS_P2;PMS_P1;PMS_P2;Temp;Humidity;BMP_temperature;BMP_pressure;BME280_temperature;BME280_humidity;BME280_pressure;Samples;Min_cycle;Max_cycle;Signal;HPM_P1;HPM_P2
2024/04/17 00:02:07;;;;;;;0.90;0.60;;;;;;;;;;5482502;26;20109;-73
2024/04/17 00:04:32;;;;;;;1.25;0.52;;;6.10;99.90;;;;;;5487451;26;19994;-73
2024/04/17 00:06:58;;;;;;;2.45;1.15;;;6.00;99.90;;;;;;5482811;26;20466;-73
2024/04/17 00:09:23;;;;;;;1.55;0.55;;;5.80;99.90;;;;;;5464587;26;20010;-73
2024/04/17 00:11:52;;;;;;;0.52;0.35;;;;;;;;;;5487929;26;20005;-73
2024/04/17 00:14:21;;;;;;;1.17;0.63;;;;;;;;;;5488458;26;20389;-73
2024/04/17 00:16:47;;;;;;;1.38;0.38;;;;;;;;;;5474855;26;20006;-73
2024/04/17 00:19:13;;;;;;;0.45;0.40;;;;;;;;;;5489011;26;20423;-73
2024/04/17 00:21:39;;;;;;;1.00;0.50;;;;;;;;;;5454989;26;20070;-73
2024/04/17 00:24:05;;;;;;;1.55;0.60;;;;;;;;;;5488583;26;19998;-73
2024/04/17 00:26:31;;;;;;;1.25;0.47;;;;;;;;;;5487330;26;19994;-73
2024/04/17 00:28:57;;;;;;;1.65;0.75;;;;;;;;;;5488329;26;19998;-73
2024/04/17 00:31:23;;;;;;;0.98;0.50;;;;;;;;;;5487734;26;19998;-72
2024/04/17 00:33:49;;;;;;;1.42;0.57;;;;;;;;;;5455406;26;20628;-73
2024/04/17 00:36:15;;;;;;;1.33;0.60;;;;;;;;;;5487787;26;20001;-73
2024/04/17 00:38:41;;;;;;;0.77;0.63;;;;;;;;;;5487544;26;20062;-73
2024/04/17 00:41:07;;;;;;;1.80;0.63;;;;;;;;;;5487948;26;20010;-73
2024/04/17 00:43:33;;;;;;;1.48;0.70;;;;;;;;;;5487100;26;20095;-73
2024/04/17 00:45:59;;;;;;;1.40;0.85;;;;;;;;;;5487792;26;19998;-74
2024/04/17 00:48:26;;;;;;;0.88;0.75;;;;;;;;;;5464983;26;20011;-74
2024/04/17 00:50:52;;;;;;;1.40;0.63;;;;;;;;;;5486178;26;20046;-74
2024/04/17 00:53:21;;;;;;;1.60;0.68;;;;;;;;;;5488816;26;19994;-74
2024/04/17 00:55:47;;;;;;;0.88;0.70;;;;;;;;;;5490563;26;20006;-74
2024/04/17 00:58:14;;;;;;;1.05;0.77;;;;;;;;;;5491099;26;20327;-74
2024/04/17 01:00:40;;;;;;;3.53;0.90;;;;;;;;;;5491541;26;19998;-74
2024/04/17 01:03:06;;;;;;;0.80;0.80;;;;;;;;;;5490534;26;20441;-73
2024/04/17 01:05:33;;;;;;;1.08;0.98;;;;;;;;;;5491114;26;20008;-74
2024/04/17 01:08:00;;;;;;;2.35;0.68;;;;;;;;;;5490875;26;20006;-73
2024/04/17 01:10:26;;;;;;;1.25;0.60;;;;;;;;;;5491507;26;19994;-74
2024/04/17 01:12:52;;;;;;;2.60;1.00;;;;;;;;;;5456437;26;20013;-73
2024/04/17 01:15:21;;;;;;;1.35;1.02;;;;;;;;;;5471274;26;20079;-73
2024/04/17 01:17:47;;;;;;;2.30;1.02;;;;;;;;;;5490382;26;20002;-74
2024/04/17 01:20:13;;;;;;;1.45;0.88;;;;;;;;;;5491252;26;20323;-73
2024/04/17 01:22:39;;;;;;;1.48;1.00;;;;;;;;;;5490104;26;20008;-73
2024/04/17 01:25:05;;;;;;;2.25;0.73;;;;;;;;;;5491088;26;19998;-73
2024/04/17 01:27:31;;;;;;;1.70;0.88;;;;;;;;;;5490362;26;19998;-73
2024/04/17 01:29:57;;;;;;;2.92;0.80;;;;;;;;;;5490098;26;20324;-73
2024/04/17 01:32:23;;;;;;;1.98;0.65;;;;;;;;;;5490304;26;20034;-73
2024/04/17 01:34:49;;;;;;;1.85;0.70;;;;;;;;;;5490882;26;20528;-73
2024/04/17 01:37:15;;;;;;;1.73;0.80;;;;;;;;;;5490236;26;20009;-73
2024/04/17 01:39:41;;;;;;;2.22;0.70;;;;;;;;;;5490555;26;20002;-73
2024/04/17 01:42:07;;;;;;;1.05;1.00;;;;;;;;;;5490092;26;20005;-73
2024/04/17 01:44:33;;;;;;;2.90;1.10;;;;;;;;;;5490840;26;19999;-74
2024/04/17 01:46:59;;;;;;;1.25;1.10;;;;;;;;;;5487183;26;19998;-73
2024/04/17 01:49:25;;;;;;;1.75;1.10;;;;;;;;;;5486206;26;20434;-73
2024/04/17 01:51:51;;;;;;;1.45;1.30;;;;;;;;;;5489620;26;20002;-73
2024/04/17 01:54:17;;;;;;;1.92;1.30;;;;;;;;;;5490514;26;20009;-72
2024/04/17 01:56:43;;;;;;;2.50;1.73;;;;;;;;;;5489776;26;20458;-73
2024/04/17 01:59:09;;;;;;;1.52;1.40;;;;;;;;;;5490700;26;19994;-73
2024/04/17 02:01:36;;;;;;;1.90;1.70;;;;;;;;;;5490077;26;20002;-72
2024/04/17 02:04:02;;;;;;;2.90;1.75;;;;;;;;;;5489014;26;19998;-73
2024/04/17 02:06:28;;;;;;;2.13;1.98;;;;;;;;;;5489435;26;20009;-73
2024/04/17 02:08:54;;;;;;;4.50;2.72;;;;;;;;;;5490217;26;20319;-71
2024/04/17 02:11:20;;;;;;;2.83;2.42;;;;;;;;;;5490400;26;19998;-73
2024/04/17 02:13:46;;;;;;;3.38;1.75;;;;;;;;;;5482002;26;20052;-73
2024/04/17 02:16:12;;;;;;;2.35;2.10;;;;;;;;;;5477141;26;20013;-73
2024/04/17 02:18:38;;;;;;;6.55;2.67;;;;;;;;;;5489188;26;20332;-73
2024/04/17 02:21:04;;;;;;;2.38;2.15;;;;;;;;;;5490176;26;20002;-73
2024/04/17 02:23:30;;;;;;;5.30;2.40;;;;;;;;;;5489387;26;20008;-73
2024/04/17 02:25:56;;;;;;;3.33;1.90;;;;;;;;;;5482604;26;20413;-73
2024/04/17 02:28:22;;;;;;;2.42;2.03;;;;;;;;;;5457604;26;19998;-73
2024/04/17 02:30:48;;;;;;;2.80;2.10;;;;;;;;;;5489554;26;20455;-73
2024/04/17 02:33:14;;;;;;;2.67;1.90;;;;;;;;;;5489579;26;19998;-74
2024/04/17 02:35:40;;;;;;;2.50;1.55;;;;;;;;;;5489585;26;20009;-73
2024/04/17 02:38:06;;;;;;;2.17;1.98;;;;;;;;;;5488901;26;20195;-73
2024/04/17 02:40:32;;;;;;;2.20;2.00;;;;;;;;;;5489743;26;19999;-73
2024/04/17 02:42:58;;;;;;;2.40;2.20;;;;;;;;;;5489451;26;19998;-73
2024/04/17 02:45:24;;;;;;;1.90;1.80;;;;;;;;;;5489564;26;20000;-73
2024/04/17 02:47:50;;;;;;;3.90;1.90;;;;;;;;;;5483477;26;19998;-73
2024/04/17 02:50:16;;;;;;;2.17;2.08;;;;;;;;;;5488727;26;20002;-73
2024/04/17 02:52:42;;;;;;;3.22;2.05;;;;;;;;;;5489140;26;20287;-73
2024/04/17 02:55:08;;;;;;;2.13;1.90;;;;;;;;;;5457059;26;20001;-73
2024/04/17 02:57:34;;;;;;;1.90;1.80;;;;;;;;;;5468323;26;19998;-74
2024/04/17 03:00:00;;;;;;;2.35;2.15;;;;;;;;;;5489639;26;20026;-73
2024/04/17 03:02:26;;;;;;;1.98;1.80;;;;;;;;;;5489315;26;20002;-71
2024/04/17 03:04:52;;;;;;;1.90;1.80;;;;;;;;;;5489324;26;19998;-73
2024/04/17 03:07:18;;;;;;;2.13;1.67;;;;;;;;;;5488741;26;20017;-73
2024/04/17 03:09:47;;;;;;;1.95;1.63;;;;;;;;;;5489684;26;20010;-74
2024/04/17 03:12:13;;;;;;;1.52;1.20;;;;;;;;;;5488456;26;20141;-74
2024/04/17 03:14:39;;;;;;;0.93;0.93;;;;;;;;;;5477290;26;20072;-74
2024/04/17 03:17:05;;;;;;;3.22;1.23;;;;;;;;;;5479204;26;20015;-74
2024/04/17 03:19:31;;;;;;;1.98;1.40;;;;;;;;;;5489061;26;20009;-74
2024/04/17 03:21:57;;;;;;;2.47;1.67;;;;;;;;;;5488711;26;19993;-74
2024/04/17 03:24:23;;;;;;;2.58;2.08;;;;;;;;;;5489664;26;20002;-76
2024/04/17 03:26:49;;;;;;;2.30;2.10;;;;;;;;;;5488454;26;20140;-75
2024/04/17 03:29:15;;;;;;;2.95;2.38;;;;;;;;;;5488380;26;19998;-75
2024/04/17 03:31:41;;;;;;;2.55;2.30;;;;;;;;;;5488773;26;20021;-74
2024/04/17 03:34:07;;;;;;;4.30;3.10;;;;;;;;;;5489143;26;20014;-75
2024/04/17 03:36:33;;;;;;;3.35;2.90;;;;;;;;;;5488073;26;19994;-74
2024/04/17 03:38:59;;;;;;;4.13;3.72;;;;;;;;;;5489408;26;20009;-75
2024/04/17 03:41:25;;;;;;;4.40;3.53;;;;;;;;;;5489016;26;20570;-75
2024/04/17 03:43:50;;;;;;;4.97;3.72;;;;;;;;;;5488704;26;20009;-74
2024/04/17 03:46:16;;;;;;;3.47;3.15;;;;;;;;;;5487800;26;19994;-75
2024/04/17 03:48:42;;;;;;;5.63;4.20;;;;;;;;;;5481449;26;20005;-73
2024/04/17 03:51:08;;;;;;;5.30;4.03;;;;;;;;;;5487949;26;20375;-75
2024/04/17 03:53:34;;;;;;;5.15;4.05;;;;;;;;;;5488121;26;20070;-75
2024/04/17 03:56:00;;;;;;;5.05;3.70;;;4.40;99.90;;;;;;5488628;26;19998;-75
2024/04/17 03:58:26;;;;;;;5.03;3.97;;;4.30;99.90;;;;;;5488209;26;20005;-73
2024/04/17 04:00:51;;;;;;;6.88;4.70;;;4.20;99.90;;;;;;5488973;26;20443;-73
2024/04/17 04:03:17;;;;;;;7.43;4.50;;;4.10;99.90;;;;;;5487530;26;19994;-74
2024/04/17 04:05:43;;;;;;;6.65;4.88;;;4.10;99.90;;;;;;5488670;26;20400;-73
2024/04/17 04:08:09;;;;;;;6.32;5.38;;;4.10;99.90;;;;;;5488039;26;20071;-73
2024/04/17 04:10:35;;;;;;;7.50;4.90;;;4.00;99.90;;;;;;5488731;26;20014;-73
2024/04/17 04:13:00;;;;;;;6.57;5.15;;;4.00;99.90;;;;;;5452193;26;20051;-73
2024/04/17 04:15:26;;;;;;;6.47;5.15;;;4.10;99.90;;;;;;5470370;26;19995;-73
2024/04/17 04:17:51;;;;;;;8.80;6.07;;;4.10;99.90;;;;;;5488079;26;20078;-73
2024/04/17 04:20:17;;;;;;;7.43;5.90;;;4.10;99.90;;;;;;5488094;26;20002;-73
2024/04/17 04:22:43;;;;;;;8.10;5.88;;;4.10;99.90;;;;;;5487713;26;20443;-73
2024/04/17 04:25:08;;;;;;;6.93;5.90;;;4.10;99.90;;;;;;5488253;26;20017;-73
2024/04/17 04:27:34;;;;;;;6.68;5.32;;;4.00;99.90;;;;;;5486472;26;20000;-73
2024/04/17 04:29:59;;;;;;;7.18;6.07;;;4.00;99.90;;;;;;5488081;26;20009;-73
2024/04/17 04:32:25;;;;;;;6.25;4.90;;;4.00;99.90;;;;;;5487692;26;20376;-72
2024/04/17 04:34:50;;;;;;;6.05;4.55;;;4.00;99.90;;;;;;5488042;26;20169;-73
2024/04/17 04:37:16;;;;;;;8.10;5.80;;;4.00;99.90;;;;;;5486358;26;19990;-73
2024/04/17 04:39:41;;;;;;;6.18;4.82;;;4.00;99.90;;;;;;5488254;26;20012;-75
2024/04/17 04:42:07;;;;;;;8.80;5.47;;;4.00;99.90;;;;;;5487437;26;20009;-74
2024/04/17 04:44:33;;;;;;;8.43;5.63;;;4.00;99.90;;;;;;5488087;26;20002;-73
2024/04/17 04:47:01;;;;;;;6.47;5.20;;;4.10;99.90;;;;;;5477041;26;20003;-72
2024/04/17 04:49:27;;;;;;;7.70;5.18;;;4.10;99.90;;;;;;5487471;26;20009;-72
2024/04/17 04:51:53;;;;;;;8.18;5.78;;;4.10;99.90;;;;;;5425428;26;19998;-73
2024/04/17 04:54:18;;;;;;;6.72;4.80;;;4.20;99.90;;;;;;5487338;26;20454;-75
2024/04/17 04:56:44;;;;;;;6.80;5.60;;;4.20;99.90;;;;;;5467310;26;20796;-75
2024/04/17 04:59:10;;;;;;;7.78;5.32;;;4.20;99.90;;;;;;5475614;26;20408;-74
2024/04/17 05:01:36;;;;;;;5.00;4.50;;;4.20;99.90;;;;;;5482430;26;20042;-74
2024/04/17 05:04:01;;;;;;;7.53;4.80;;;4.30;99.90;;;;;;5480074;26;20454;-74
2024/04/17 05:06:27;;;;;;;5.70;5.10;;;4.30;99.90;;;;;;5477018;26;20009;-74
2024/04/17 05:08:52;;;;;;;5.10;4.35;;;4.30;99.90;;;;;;5475402;26;20327;-73
2024/04/17 05:11:18;;;;;;;7.03;4.57;;;4.30;99.90;;;;;;5482583;26;20005;-73
2024/04/17 05:13:43;;;;;;;5.70;3.65;;;4.30;99.90;;;;;;5485682;26;20392;-74
2024/04/17 05:16:09;;;;;;;5.20;4.10;;;4.30;99.90;;;;;;5457820;26;20014;-74
2024/04/17 05:18:34;;;;;;;5.82;4.63;;;4.40;99.90;;;;;;5485902;26;20009;-72
2024/04/17 05:21:00;;;;;;;6.20;4.95;;;4.40;99.90;;;;;;5484593;26;20002;-75
2024/04/17 05:23:26;;;;;;;5.60;4.50;;;4.50;99.90;;;;;;5457041;26;20364;-74
2024/04/17 05:25:51;;;;;;;6.15;4.60;;;4.60;99.90;;;;;;5454048;26;20013;-74
2024/04/17 05:28:18;;;;;;;6.13;4.55;;;4.50;99.90;;;;;;5472773;26;20034;-74
2024/04/17 05:30:43;;;;;;;5.45;4.15;;;4.60;99.90;;;;;;5486500;26;20458;-74
2024/04/17 05:33:09;;;;;;;7.32;4.70;;;4.60;99.90;;;;;;5495453;26;19999;-75
2024/04/17 05:35:34;;;;;;;6.05;4.63;;;4.60;99.90;;;;;;5477466;26;20642;-74
2024/04/17 05:38:00;;;;;;;4.22;3.63;;;4.60;99.90;;;;;;5483396;26;20051;-74
2024/04/17 05:40:25;;;;;;;8.05;4.25;;;4.70;99.90;;;;;;5477213;26;20010;-70
2024/04/17 05:42:51;;;;;;;4.68;3.38;;;4.70;99.90;;;;;;5487009;26;20707;-70
2024/04/17 05:45:17;;;;;;;4.40;3.78;;;4.80;99.90;;;;;;5486167;26;19994;-72
2024/04/17 05:47:42;;;;;;;6.00;3.90;;;4.80;99.90;;;;;;5482027;26;20003;-75
2024/04/17 05:50:08;;;;;;;5.43;4.63;;;4.90;99.90;;;;;;5489074;26;19995;-71
2024/04/17 05:52:33;;;;;;;5.97;4.60;;;4.90;99.90;;;;;;5489711;26;20006;-71
2024/04/17 05:54:59;;;;;;;6.57;5.25;;;5.00;99.90;;;;;;5466194;26;20075;-71
2024/04/17 05:57:25;;;;;;;7.07;5.75;;;5.00;99.90;;;;;;5485771;26;20002;-70
2024/04/17 05:59:50;;;;;;;7.88;5.68;;;5.00;99.90;;;;;;5483864;26;20344;-70
2024/04/17 06:02:16;;;;;;;9.70;6.90;;;5.10;99.90;;;;;;5489221;26;19998;-70
2024/04/17 06:04:42;;;;;;;10.43;8.20;;;5.10;99.90;;;;;;5486824;26;19994;-70
2024/04/17 06:07:08;;;;;;;11.30;8.35;;;5.20;99.90;;;;;;5483928;26;20820;-70
2024/04/17 06:09:33;;;;;;;17.90;10.35;;;5.10;99.90;;;;;;5462697;26;20011;-71
2024/04/17 06:11:59;;;;;;;13.73;10.23;;;5.10;99.90;;;;;;5483272;26;19994;-70
2024/04/17 06:14:24;;;;;;;11.52;9.75;;;5.20;99.90;;;;;;5487670;26;20002;-71
2024/04/17 06:16:50;;;;;;;14.30;10.68;;;5.20;99.90;;;;;;5462278;26;20002;-73
2024/04/17 06:19:16;;;;;;;15.07;9.88;;;5.30;99.90;;;;;;5481069;26;20451;-74
2024/04/17 06:21:41;;;;;;;15.57;10.35;;;5.40;99.90;;;;;;5488460;26;20009;-75
2024/04/17 06:24:07;;;;;;;14.27;10.23;;;5.40;99.90;;;;;;5486860;26;20013;-74
2024/04/17 06:26:32;;;;;;;12.15;9.82;;;5.50;99.90;;;;;;5484596;26;20442;-75
2024/04/17 06:28:58;;;;;;;12.95;10.25;;;5.50;99.90;;;;;;5484312;26;20013;-76
2024/04/17 06:31:25;;;;;;;13.25;9.88;;;5.50;99.90;;;;;;5484455;26;20013;-74
2024/04/17 06:33:51;;;;;;;13.60;10.13;;;5.50;99.90;;;;;;5488179;26;19998;-74
2024/04/17 06:36:17;;;;;;;15.30;9.75;;;5.60;99.90;;;;;;5487764;26;20012;-74
2024/04/17 06:38:44;;;;;;;13.20;9.55;;;5.60;99.90;;;;;;5487732;26;20010;-73
2024/04/17 06:41:09;;;;;;;14.13;9.00;;;5.70;99.90;;;;;;5488005;26;20013;-73
2024/04/17 06:43:35;;;;;;;10.35;8.82;;;5.70;99.90;;;;;;5487283;26;20005;-74
2024/04/17 06:46:00;;;;;;;10.05;8.55;;;5.70;99.90;;;;;;5487966;26;20029;-74
2024/04/17 06:48:26;;;;;;;10.80;7.90;;;5.80;99.90;;;;;;5486975;26;19995;-74
2024/04/17 06:50:52;;;;;;;9.35;7.50;;;5.80;99.90;;;;;;5487069;26;20004;-73
2024/04/17 06:53:17;;;;;;;8.95;7.82;;;5.90;99.90;;;;;;5454221;26;20017;-73
2024/04/17 06:55:43;;;;;;;9.10;7.57;;;5.90;99.90;;;;;;5483395;26;20010;-74
2024/04/17 06:58:08;;;;;;;10.25;7.50;;;5.80;99.90;;;;;;5486878;26;20408;-72
2024/04/17 07:00:36;;;;;;;7.82;6.95;;;5.80;99.90;;;;;;5479970;26;19995;-70
2024/04/17 07:03:02;;;;;;;7.72;6.85;;;5.80;99.90;;;;;;5477936;26;20010;-71
2024/04/17 07:05:28;;;;;;;9.98;7.13;;;5.80;99.90;;;;;;5480027;26;20002;-71
2024/04/17 07:07:54;;;;;;;11.70;8.45;;;5.70;99.90;;;;;;5476139;26;20030;-71
2024/04/17 07:10:20;;;;;;;10.10;7.32;;;5.70;99.90;;;;;;5485067;26;20006;-72
2024/04/17 07:12:46;;;;;;;11.13;7.80;;;5.60;99.90;;;;;;5487640;26;19999;-71
2024/04/17 07:15:12;;;;;;;8.05;6.75;;;5.60;99.90;;;;;;5474328;26;20064;-71
2024/04/17 07:17:37;;;;;;;10.68;6.20;;;5.60;99.90;;;;;;5483027;26;20006;-71
2024/04/17 07:20:03;;;;;;;8.07;5.50;;;5.60;99.90;;;;;;5467449;26;20014;-72
2024/04/17 07:22:29;;;;;;;6.63;5.53;;;5.70;99.90;;;;;;5487657;26;20308;-72
2024/04/17 07:24:54;;;;;;;7.43;5.40;;;5.60;99.90;;;;;;5488413;26;20013;-72
2024/04/17 07:27:20;;;;;;;7.90;6.13;;;5.60;99.90;;;;;;5467011;26;20027;-71
2024/04/17 07:29:45;;;;;;;7.15;6.22;;;5.60;99.90;;;;;;5488463;26;20013;-71
2024/04/17 07:32:11;;;;;;;8.35;5.80;;;5.60;99.90;;;;;;5488346;26;19998;-72
2024/04/17 07:34:37;;;;;;;5.95;5.25;;;5.70;99.90;;;;;;5488790;26;20036;-71
2024/04/17 07:37:04;;;;;;;5.78;4.88;;;5.60;99.90;;;;;;5488354;26;20034;-72
2024/04/17 07:39:30;;;;;;;6.05;4.63;;;5.70;99.90;;;;;;5481300;26;20455;-72
2024/04/17 07:41:55;;;;;;;5.43;4.30;;;5.60;99.90;;;;;;5472627;26;20009;-72
2024/04/17 07:44:21;;;;;;;7.47;5.20;;;5.60;99.90;;;;;;5488246;26;20519;-71
2024/04/17 07:46:47;;;;;;;6.97;4.70;;;5.50;99.90;;;;;;5487833;26;20013;-71
2024/04/17 07:49:15;;;;;;;8.13;4.70;;;5.50;99.90;;;;;;5487502;26;20332;-72
2024/04/17 07:51:40;;;;;;;7.22;4.88;;;5.40;99.90;;;;;;5487990;26;20074;-71
2024/04/17 07:54:06;;;;;;;6.70;5.30;;;5.40;99.90;;;;;;5488425;26;20384;-71
2024/04/17 07:56:32;;;;;;;6.68;5.15;;;5.40;99.90;;;;;;5487036;26;19998;-71
2024/04/17 07:58:57;;;;;;;6.85;5.53;;;5.40;99.90;;;;;;5487985;26;20020;-71
2024/04/17 08:01:23;;;;;;;7.65;5.72;;;5.40;99.90;;;;;;5488193;26;20380;-71
2024/04/17 08:03:48;;;;;;;8.85;6.20;;;5.40;99.90;;;;;;5485861;26;19994;-71
2024/04/17 08:06:17;;;;;;;8.77;6.22;;;5.50;99.90;;;;;;5484205;26;20327;-70
2024/04/17 08:08:43;;;;;;;12.93;7.72;;;5.50;99.90;;;;;;5469233;26;20025;-71
2024/04/17 08:11:08;;;;;;;9.13;6.60;;;5.50;99.90;;;;;;5484001;26;20439;-71
2024/04/17 08:13:34;;;;;;;9.75;7.25;;;5.40;99.90;;;;;;5478313;26;20010;-71
2024/04/17 08:15:59;;;;;;;10.93;8.18;;;5.40;99.90;;;;;;5484577;26;20431;-71
2024/04/17 08:18:25;;;;;;;11.00;7.93;;;5.40;99.90;;;;;;5482866;26;19995;-71
2024/04/17 08:20:57;;;;;;;13.52;8.75;;;5.40;99.90;;;;;;5466092;26;20146;-71
2024/04/17 08:23:23;;;;;;;13.57;9.63;;;5.50;99.90;;;;;;5466307;26;20009;-71
2024/04/17 08:25:49;;;;;;;13.10;9.43;;;5.60;99.90;;;;;;5485154;26;20002;-71
2024/04/17 08:28:14;;;;;;;10.82;8.60;;;5.70;99.90;;;;;;5486130;26;20009;-71
2024/04/17 08:30:40;;;;;;;13.95;9.52;;;5.80;99.90;;;;;;5487421;26;20008;-71
2024/04/17 08:33:05;;;;;;;11.43;8.48;;;5.80;99.90;;;;;;5465942;26;19990;-72
2024/04/17 08:35:35;;;;;;;12.55;9.45;;;6.00;99.90;;;;;;5479336;26;20014;-71
2024/04/17 08:38:01;;;;;;;13.88;9.02;;;6.20;99.90;;;;;;5455325;26;20396;-71
2024/04/17 08:40:26;;;;;;;11.02;8.48;;;6.50;99.90;;;;;;5487621;26;19998;-71
2024/04/17 08:42:54;;;;;;;13.13;8.40;;;6.70;99.90;;;;;;5475880;26;20013;-72
2024/04/17 08:45:35;;;;;;;9.93;7.45;;;6.90;99.90;;;;;;5463003;26;19995;-71
2024/04/17 08:48:02;;;;;;;9.20;7.55;;;7.00;99.90;;;;;;5468105;26;19998;-71
2024/04/17 08:50:32;;;;;;;9.57;7.25;;;7.10;99.90;;;;;;5486042;26;20002;-71
2024/04/17 08:53:05;;;;;;;9.40;7.22;;;7.40;99.90;;;;;;5466537;26;20026;-71
2024/04/17 08:55:31;;;;;;;11.27;7.07;;;7.60;99.90;;;;;;5486815;26;20030;-71
2024/04/17 08:57:58;;;;;;;11.35;7.38;;;7.80;99.90;;;;;;5486076;26;20008;-71
2024/04/17 09:00:25;;;;;;;9.07;6.95;;;7.90;99.90;;;;;;5483707;26;20002;-71
2024/04/17 09:02:59;;;;;;;8.75;6.78;;;7.90;99.90;;;;;;5485945;26;19994;-71
2024/04/17 09:05:27;;;;;;;7.75;6.32;;;8.00;99.90;;;;;;5486807;26;19994;-71
2024/04/17 09:07:53;;;;;;;8.95;6.70;;;8.00;99.90;;;;;;5485825;26;19994;-72
2024/04/17 09:10:19;;;;;;;10.32;6.88;;;7.90;99.90;;;;;;5486660;26;20013;-71
2024/04/17 09:12:45;;;;;;;10.20;6.00;;;7.60;99.90;;;;;;5475904;26;19998;-71
2024/04/17 09:15:15;;;;;;;7.32;4.40;;;7.30;99.90;;;;;;5478130;26;20004;-72
2024/04/17 09:17:44;;;;;;;6.75;4.95;;;7.10;99.90;;;;;;5454352;26;19995;-71
2024/04/17 09:20:10;;;;;;;7.18;5.25;;;6.80;99.90;;;;;;5489856;26;19994;-71
2024/04/17 09:22:36;;;;;;;7.93;5.35;;;6.60;99.90;;;;;;5489717;26;20551;-71
2024/04/17 09:25:14;;;;;;;7.90;5.88;;;6.50;99.90;;;;;;5489925;26;20002;-72
2024/04/17 09:27:40;;;;;;;8.57;5.78;;;6.30;99.90;;;;;;5489863;26;20018;-71
2024/04/17 09:30:06;;;;;;;7.72;5.82;;;6.20;99.90;;;;;;5490587;26;20354;-71
2024/04/17 09:32:32;;;;;;;9.23;6.53;;;6.10;99.90;;;;;;5489570;26;20342;-71
2024/04/17 09:34:59;;;;;;;9.88;6.55;;;6.00;99.90;;;;;;5490000;26;20004;-71
2024/04/17 09:37:25;;;;;;;9.73;6.80;;;6.00;99.90;;;;;;5489468;26;19990;-71
2024/04/17 09:40:01;;;;;;;8.23;6.25;;;6.00;99.90;;;;;;5490727;26;19995;-71
2024/04/17 09:42:28;;;;;;;10.13;6.93;;;6.10;99.90;;;;;;5457215;26;20397;-71
2024/04/17 09:44:59;;;;;;;16.65;7.43;;;6.00;99.90;;;;;;5489796;26;20406;-71
2024/04/17 09:47:27;;;;;;;10.80;6.35;;;5.90;99.90;;;;;;5489715;26;20028;-71
2024/04/17 09:49:55;;;;;;;11.52;7.32;;;5.90;99.90;;;;;;5489790;26;19999;-71
2024/04/17 09:52:20;;;;;;;9.25;7.47;;;5.80;99.90;;;;;;5489440;26;20006;-75
2024/04/17 09:54:47;;;;;;;10.10;7.03;;;5.70;99.90;;;;;;5489707;26;20458;-71
2024/04/17 09:57:13;;;;;;;12.90;8.25;;;5.70;99.90;;;;;;5488477;26;20017;-71
2024/04/17 09:59:40;;;;;;;9.55;6.30;;;5.70;99.90;;;;;;5483836;26;19998;-74
2024/04/17 10:02:11;;;;;;;15.30;6.20;;;5.70;99.90;;;;;;5488286;26;20002;-77
2024/04/17 10:04:38;;;;;;;6.40;4.65;;;5.60;99.90;;;;;;5489753;26;19998;-72
2024/04/17 10:07:06;;;;;;;9.43;4.70;;;5.70;99.90;;;;;;5489279;26;20002;-71
2024/04/17 10:09:32;;;;;;;7.80;5.65;;;5.80;99.90;;;;;;5488544;26;20013;-71
2024/04/17 10:11:59;;;;;;;7.10;5.20;;;5.90;99.90;;;;;;5464271;26;20021;-71
2024/04/17 10:14:26;;;;;;;7.10;4.40;;;6.00;99.90;;;;;;5438747;26;20104;-71
2024/04/17 10:16:53;;;;;;;7.47;4.72;;;6.20;99.90;;;;;;5485658;26;20046;-71
2024/04/17 10:19:20;;;;;;;8.15;4.35;;;6.30;99.90;;;;;;5464429;26;20014;-71
2024/04/17 10:21:46;;;;;;;6.22;3.85;;;6.60;99.90;;;;;;5486750;26;19998;-71
2024/04/17 10:24:12;;;;;;;10.10;4.32;;;6.90;99.90;;;;;;5489509;26;20042;-71
2024/04/17 10:26:44;;;;;;;9.30;5.85;;;7.00;99.90;;;;;;5486712;26;20008;-71
2024/04/17 10:29:27;;;;;;;13.40;4.95;;;7.20;99.90;;;;;;5488882;26;20038;-72
2024/04/17 10:32:05;;;;;;;9.88;6.18;;;7.30;99.90;;;;;;5488660;26;19998;-71
2024/04/17 10:34:44;;;;;;;10.27;6.65;;;7.40;99.90;;;;;;5460827;26;20005;-71
2024/04/17 10:37:10;;;;;;;15.17;8.67;;;7.40;99.90;;;;;;5488260;26;19994;-71
2024/04/17 10:39:40;;;;;;;10.05;6.53;;;7.60;99.90;;;;;;5489434;26;20034;-71
2024/04/17 10:42:06;;;;;;;10.25;7.53;;;7.80;99.90;;;;;;5488630;26;19998;-71
2024/04/17 10:44:35;;;;;;;12.18;7.50;;;8.00;99.90;;;;;;5489286;26;20037;-71
2024/04/17 10:47:05;;;;;;;8.27;6.45;;;8.10;99.90;;;;;;5488693;26;20443;-71
2024/04/17 10:49:38;;;;;;;12.98;7.18;;;8.20;99.90;;;;;;5488522;26;20013;-71
2024/04/17 10:52:04;;;;;;;10.05;7.22;;;8.30;99.90;;;;;;5482023;26;19998;-71
2024/04/17 10:54:29;;;;;;;12.00;6.15;;;8.40;99.90;;;;;;5489286;26;19998;-71
2024/04/17 10:56:58;;;;;;;13.57;5.75;;;8.60;99.90;;;;;;5488246;26;20009;-71
2024/04/17 10:59:27;;;;;;;11.18;6.38;;;8.90;99.90;;;;;;5484236;26;19994;-71
2024/04/17 11:01:53;;;;;;;11.45;6.15;;;9.00;99.90;;;;;;5470030;26;20392;-72
2024/04/17 11:04:18;;;;;;;15.30;6.45;;;9.00;99.90;;;;;;5488852;26;19994;-71
2024/04/17 11:06:44;;;;;;;10.98;6.40;;;9.00;99.90;;;;;;5487430;26;20006;-72
2024/04/17 11:09:10;;;;;;;10.35;6.20;;;8.90;99.90;;;;;;5488750;26;20029;-71
2024/04/17 11:11:35;;;;;;;11.30;6.63;;;9.00;99.90;;;;;;5488280;26;20002;-71
2024/04/17 11:14:01;;;;;;;12.63;6.70;;;9.10;99.90;;;;;;5474979;26;20440;-71
2024/04/17 11:16:27;;;;;;;11.73;6.53;;;9.20;99.90;;;;;;5479654;26;20016;-71
2024/04/17 11:18:52;;;;;;;9.93;5.78;;;9.70;99.90;;;;;;5470072;26;20003;-72
2024/04/17 11:21:22;;;;;;;7.78;5.20;;;9.70;99.90;;;;;;5479144;26;19994;-72
2024/04/17 11:23:47;;;;;;;7.20;5.22;;;10.00;99.90;;;;;;5487706;26;20010;-72
2024/04/17 11:26:13;;;;;;;5.78;4.35;;;10.50;99.90;;;;;;5488470;26;20025;-72
2024/04/17 11:28:46;;;;;;;5.65;3.92;;;10.90;99.90;;;;;;5487070;26;19998;-71
2024/04/17 11:31:13;;;;;;;9.77;4.22;;;10.90;99.90;;;;;;5487985;26;20005;-72
2024/04/17 11:33:39;;;;;;;7.38;3.65;;;10.80;99.90;;;;;;5481975;26;20020;-71
2024/04/17 11:36:09;;;;;;;7.70;2.60;;;10.40;99.90;;;;;;5483723;26;20002;-71
2024/04/17 11:38:35;;;;;;;3.67;1.98;;;9.80;99.90;;;;;;5484228;26;20519;-71
2024/04/17 11:41:02;;;;;;;3.80;1.58;;;9.30;99.90;;;;;;5483507;26;20082;-71
2024/04/17 11:43:27;;;;;;;2.97;1.27;;;9.30;99.90;;;;;;5487126;26;20033;-72
2024/04/17 11:45:53;;;;;;;4.72;2.22;;;9.50;99.90;;;;;;5488279;26;20070;-71
2024/04/17 11:48:19;;;;;;;8.10;2.80;;;9.70;99.90;;;;;;5487449;26;19998;-72
2024/04/17 11:50:45;;;;;;;5.18;2.67;;;10.00;99.90;;;;;;5487107;26;19994;-71
2024/04/17 11:53:10;;;;;;;7.20;3.00;;;10.20;99.90;;;;;;5486883;26;20005;-71
2024/04/17 11:55:37;;;;;;;6.82;3.63;;;10.40;99.90;;;;;;5486270;26;20001;-71
2024/04/17 11:58:04;;;;;;;6.40;2.95;;;10.40;99.90;;;;;;5486768;26;20078;-71
2024/04/17 12:00:30;;;;;;;7.43;3.35;;;10.60;99.90;;;;;;5482248;26;19998;-73
2024/04/17 12:02:56;;;;;;;8.23;3.47;;;10.80;99.90;;;;;;5486984;26;20002;-72
2024/04/17 12:05:24;;;;;;;10.45;3.70;;;;;;;;;;5487810;26;20320;-72
2024/04/17 12:07:51;;;;;;;9.10;3.13;;;11.30;99.90;;;;;;5468009;26;20010;-72
2024/04/17 12:10:17;;;;;;;6.63;3.10;;;11.60;99.90;;;;;;5485041;26;20026;-72
2024/04/17 12:12:43;;;;;;;10.25;3.60;;;12.00;99.90;;;;;;5446019;26;20014;-72
2024/04/17 12:15:09;;;;;;;7.28;3.28;;;12.20;99.90;;;;;;5477571;26;19994;-72
2024/04/17 12:17:34;;;;;;;10.02;3.97;;;12.20;99.90;;;;;;5483756;26;20006;-72
2024/04/17 12:20:00;;;;;;;6.32;3.35;;;12.10;99.90;;;;;;5463613;26;20017;-72
2024/04/17 12:22:26;;;;;;;6.95;3.53;;;12.10;99.90;;;;;;5487649;26;20323;-72
2024/04/17 12:27:35;;;;;;;8.27;3.17;;;11.60;99.90;;;;;;5459729;26;20070;-72
2024/04/17 12:30:01;;;;;;;6.38;2.58;;;11.20;99.90;;;;;;5487285;26;20013;-71
2024/04/17 12:32:27;;;;;;;4.63;2.20;;;10.70;99.90;;;;;;5472234;26;20005;-71
2024/04/17 12:34:52;;;;;;;5.20;2.05;;;10.40;99.90;;;;;;5487394;26;19998;-72
2024/04/17 12:37:18;;;;;;;6.15;1.90;;;10.40;99.90;;;;;;5454637;26;19994;-72
2024/04/17 12:39:44;;;;;;;5.30;2.00;;;10.30;99.90;;;;;;5487659;26;19998;-72
2024/04/17 12:42:11;;;;;;;6.13;2.28;;;10.30;99.90;;;;;;5486848;26;19998;-72
2024/04/17 12:44:37;;;;;;;5.90;2.25;;;10.30;99.90;;;;;;5487138;26;19998;-72
2024/04/17 12:47:02;;;;;;;4.55;2.10;;;10.60;99.90;;;;;;5486719;26;20009;-72
2024/04/17 12:49:28;;;;;;;5.85;1.80;;;11.20;99.90;;;;;;5485337;26;19998;-72
2024/04/17 12:51:53;;;;;;;4.03;1.90;;;11.70;99.90;;;;;;5486920;26;20001;-72
2024/04/17 12:54:20;;;;;;;4.75;1.70;;;12.10;99.90;;;;;;5487249;26;20010;-73
2024/04/17 12:56:46;;;;;;;4.47;1.90;;;12.50;99.80;;;;;;5486324;26;20063;-72
2024/04/17 12:59:11;;;;;;;9.98;2.78;;;12.70;99.20;;;;;;5480514;26;20433;-72
2024/04/17 13:01:37;;;;;;;5.70;2.47;;;12.50;99.50;;;;;;5452418;26;20003;-72
2024/04/17 13:04:02;;;;;;;5.32;2.00;;;12.40;99.80;;;;;;5474349;26;20014;-72
2024/04/17 13:06:28;;;;;;;8.45;2.42;;;12.20;99.90;;;;;;5485933;26;20009;-72
2024/04/17 13:08:55;;;;;;;4.82;2.20;;;11.90;99.30;;;;;;5473666;26;20014;-72
2024/04/17 13:11:21;;;;;;;6.55;2.03;;;11.70;98.60;;;;;;5476109;26;20013;-72
2024/04/17 13:13:46;;;;;;;5.63;2.40;;;11.40;99.50;;;;;;5474179;26;20009;-72
2024/04/17 13:16:13;;;;;;;4.85;2.63;;;11.20;99.90;;;;;;5469083;26;20351;-72
2024/04/17 13:18:40;;;;;;;4.85;2.65;;;11.10;99.90;;;;;;5469423;26;20097;-72